Portada
METAR-TAF:

METAR-TAF

Aeroports :

Aeroport Internacional de Xangai-Pudong

Xangai-Pudong, Xina

latitud: 31-07N, longitud: 121-46E, altitud: 4 m

Observació

L'informe es va fer fa 23 minuts, a les 04:30 UTC
Vent 8 kt del Oest/Sud-Oest
Temperatura 13°C
Humitat 77%
Pressió 1017 hPa
Visibilitat 10 km o més
Cel ennuvolat a una alçada de 3000 ft

METAR: ZSPD 280430Z 24004MPS 9999 BKN030 13/09 Q1017 NOSIG

Hora: 12:53 (04:53 UTC)

Pronòstic

L'informe es va fer fa 7 hores i 41 minuts, a les 21:12 UTC
Pronòstic vàlid del 28 a les 00 UTC al 28 a les 24 UTC
Vent 12 kt del Sud/Sud-Est
Visibilitat: 6000 m
Cel ennuvolat a una alçada de 1200 ft
Evolucionant progressivament
l' 28 a les 04 UTC al 28 a les 05 UTC
Vent 8 kt del Oest/Sud-Oest
Evolucionant progressivament
l' 28 a les 07 UTC al 28 a les 08 UTC
Vent 8 kt del Nord/Nord-Oest

TAF: ZSPD 272112Z 2800/2824 16006MPS 6000 BKN012 TX14/2806Z TN09/2821Z BECMG 2804/2805 24004MPS BECMG 2807/2808 34004MPS

Observacions i pronòstics meteorològics de més de 4000 aeroports (METAR i TAF).

Les estacions disponibles són els punts grocs i vermells al mapa.

Posi el ratolí al punt desitjat per veure el nom de l'estació.

Feu clic per veure les observacions i els pronòstics meteorològics.

Per canviar el mapa: feu clic els botons verds amb una creu de color negre per apropar; al botó verd amb un guió per allunyar la imatge; o en les fletxes verdes per a mapes adjacents.


METAR-TAF: